sensor_id;sensor_type;location;lat;lon;timestamp;P1;durP1;ratioP1;P2;durP2;ratioP2
62030;SDS011;62035;52.094;5.112;2022-07-18T00:00:52;10.70;;;4.50;;
62030;SDS011;62035;52.094;5.112;2022-07-18T00:03:19;9.77;;;4.80;;
62030;SDS011;62035;52.094;5.112;2022-07-18T00:05:47;10.07;;;4.85;;
62030;SDS011;62035;52.094;5.112;2022-07-18T00:08:14;6.30;;;3.90;;
62030;SDS011;62035;52.094;5.112;2022-07-18T00:10:42;10.00;;;3.72;;
62030;SDS011;62035;52.094;5.112;2022-07-18T00:13:11;8.43;;;4.07;;
62030;SDS011;62035;52.094;5.112;2022-07-18T00:15:39;7.93;;;4.32;;
62030;SDS011;62035;52.094;5.112;2022-07-18T00:18:07;8.75;;;3.72;;
62030;SDS011;62035;52.094;5.112;2022-07-18T00:20:35;8.02;;;3.40;;
62030;SDS011;62035;52.094;5.112;2022-07-18T00:23:02;7.45;;;3.38;;
62030;SDS011;62035;52.094;5.112;2022-07-18T00:25:30;8.13;;;3.35;;
62030;SDS011;62035;52.094;5.112;2022-07-18T00:27:57;8.75;;;3.47;;
62030;SDS011;62035;52.094;5.112;2022-07-18T00:30:26;8.55;;;3.88;;
62030;SDS011;62035;52.094;5.112;2022-07-18T00:32:54;8.05;;;3.72;;
62030;SDS011;62035;52.094;5.112;2022-07-18T00:35:22;7.03;;;3.60;;
62030;SDS011;62035;52.094;5.112;2022-07-18T00:37:49;9.02;;;4.40;;
62030;SDS011;62035;52.094;5.112;2022-07-18T00:40:17;9.82;;;3.30;;
62030;SDS011;62035;52.094;5.112;2022-07-18T00:42:44;6.57;;;3.40;;
62030;SDS011;62035;52.094;5.112;2022-07-18T00:45:12;13.50;;;3.53;;
62030;SDS011;62035;52.094;5.112;2022-07-18T00:47:41;8.57;;;3.70;;
62030;SDS011;62035;52.094;5.112;2022-07-18T00:50:09;7.18;;;3.30;;
62030;SDS011;62035;52.094;5.112;2022-07-18T00:52:38;10.55;;;3.22;;
62030;SDS011;62035;52.094;5.112;2022-07-18T00:55:06;9.45;;;4.72;;
62030;SDS011;62035;52.094;5.112;2022-07-18T00:57:35;6.38;;;3.47;;
62030;SDS011;62035;52.094;5.112;2022-07-18T01:00:04;7.43;;;3.95;;
62030;SDS011;62035;52.094;5.112;2022-07-18T01:02:53;7.28;;;4.20;;
62030;SDS011;62035;52.094;5.112;2022-07-18T01:05:21;11.00;;;4.53;;
62030;SDS011;62035;52.094;5.112;2022-07-18T01:07:49;5.43;;;2.97;;
62030;SDS011;62035;52.094;5.112;2022-07-18T01:10:18;6.03;;;3.08;;
62030;SDS011;62035;52.094;5.112;2022-07-18T01:12:45;7.10;;;3.55;;
62030;SDS011;62035;52.094;5.112;2022-07-18T01:15:13;9.35;;;4.30;;
62030;SDS011;62035;52.094;5.112;2022-07-18T01:17:41;10.38;;;4.30;;
62030;SDS011;62035;52.094;5.112;2022-07-18T01:20:11;8.10;;;4.13;;
62030;SDS011;62035;52.094;5.112;2022-07-18T01:22:40;6.30;;;3.22;;
62030;SDS011;62035;52.094;5.112;2022-07-18T01:25:08;7.20;;;3.90;;
62030;SDS011;62035;52.094;5.112;2022-07-18T01:27:37;8.27;;;3.83;;
62030;SDS011;62035;52.094;5.112;2022-07-18T01:30:05;7.22;;;3.35;;
62030;SDS011;62035;52.094;5.112;2022-07-18T01:32:35;5.53;;;3.17;;
62030;SDS011;62035;52.094;5.112;2022-07-18T01:35:03;8.40;;;3.60;;
62030;SDS011;62035;52.094;5.112;2022-07-18T01:37:32;7.60;;;3.20;;
62030;SDS011;62035;52.094;5.112;2022-07-18T01:40:00;6.95;;;3.08;;
62030;SDS011;62035;52.094;5.112;2022-07-18T01:42:33;8.48;;;3.85;;
62030;SDS011;62035;52.094;5.112;2022-07-18T01:45:00;9.63;;;3.75;;
62030;SDS011;62035;52.094;5.112;2022-07-18T01:47:28;7.05;;;3.08;;
62030;SDS011;62035;52.094;5.112;2022-07-18T01:49:56;8.45;;;3.80;;
62030;SDS011;62035;52.094;5.112;2022-07-18T01:52:23;5.90;;;3.40;;
62030;SDS011;62035;52.094;5.112;2022-07-18T01:54:51;7.53;;;3.30;;
62030;SDS011;62035;52.094;5.112;2022-07-18T01:57:20;9.23;;;2.90;;
62030;SDS011;62035;52.094;5.112;2022-07-18T01:59:47;6.25;;;3.40;;
62030;SDS011;62035;52.094;5.112;2022-07-18T02:02:15;6.90;;;3.22;;
62030;SDS011;62035;52.094;5.112;2022-07-18T02:04:43;5.53;;;3.20;;
62030;SDS011;62035;52.094;5.112;2022-07-18T02:07:30;7.30;;;3.05;;
62030;SDS011;62035;52.094;5.112;2022-07-18T02:10:03;7.35;;;3.03;;
62030;SDS011;62035;52.094;5.112;2022-07-18T02:12:35;7.38;;;2.88;;
62030;SDS011;62035;52.094;5.112;2022-07-18T02:15:04;9.32;;;3.20;;
62030;SDS011;62035;52.094;5.112;2022-07-18T02:17:35;7.07;;;3.17;;
62030;SDS011;62035;52.094;5.112;2022-07-18T02:20:03;5.93;;;3.45;;
62030;SDS011;62035;52.094;5.112;2022-07-18T02:22:34;10.00;;;3.10;;
62030;SDS011;62035;52.094;5.112;2022-07-18T02:25:02;6.65;;;3.20;;
62030;SDS011;62035;52.094;5.112;2022-07-18T02:27:31;5.32;;;3.10;;
62030;SDS011;62035;52.094;5.112;2022-07-18T02:30:00;8.65;;;3.08;;
62030;SDS011;62035;52.094;5.112;2022-07-18T02:32:28;8.65;;;3.70;;
62030;SDS011;62035;52.094;5.112;2022-07-18T02:34:55;8.45;;;3.00;;
62030;SDS011;62035;52.094;5.112;2022-07-18T02:37:23;6.40;;;3.17;;
62030;SDS011;62035;52.094;5.112;2022-07-18T02:39:50;6.53;;;2.88;;
62030;SDS011;62035;52.094;5.112;2022-07-18T02:42:18;7.00;;;2.85;;
62030;SDS011;62035;52.094;5.112;2022-07-18T02:44:46;8.05;;;3.25;;
62030;SDS011;62035;52.094;5.112;2022-07-18T02:47:14;8.52;;;3.28;;
62030;SDS011;62035;52.094;5.112;2022-07-18T02:49:42;5.75;;;2.88;;
62030;SDS011;62035;52.094;5.112;2022-07-18T02:52:09;5.28;;;2.92;;
62030;SDS011;62035;52.094;5.112;2022-07-18T02:54:37;5.57;;;2.97;;
62030;SDS011;62035;52.094;5.112;2022-07-18T02:57:05;7.22;;;2.85;;
62030;SDS011;62035;52.094;5.112;2022-07-18T02:59:33;4.70;;;2.80;;
62030;SDS011;62035;52.094;5.112;2022-07-18T03:02:01;7.80;;;3.60;;
62030;SDS011;62035;52.094;5.112;2022-07-18T03:04:30;9.40;;;3.08;;
62030;SDS011;62035;52.094;5.112;2022-07-18T03:06:58;5.93;;;2.85;;
62030;SDS011;62035;52.094;5.112;2022-07-18T03:09:26;7.90;;;3.40;;
62030;SDS011;62035;52.094;5.112;2022-07-18T03:11:54;6.57;;;3.10;;
62030;SDS011;62035;52.094;5.112;2022-07-18T03:14:22;6.18;;;2.70;;
62030;SDS011;62035;52.094;5.112;2022-07-18T03:16:50;5.45;;;2.90;;
62030;SDS011;62035;52.094;5.112;2022-07-18T03:19:18;5.75;;;3.05;;
62030;SDS011;62035;52.094;5.112;2022-07-18T03:21:47;9.38;;;3.40;;
62030;SDS011;62035;52.094;5.112;2022-07-18T03:24:15;8.55;;;3.20;;
62030;SDS011;62035;52.094;5.112;2022-07-18T03:26:42;6.28;;;2.75;;
62030;SDS011;62035;52.094;5.112;2022-07-18T03:29:10;7.18;;;3.00;;
62030;SDS011;62035;52.094;5.112;2022-07-18T03:31:39;5.07;;;2.88;;
62030;SDS011;62035;52.094;5.112;2022-07-18T03:34:07;6.38;;;3.00;;
62030;SDS011;62035;52.094;5.112;2022-07-18T03:36:34;5.07;;;2.67;;
62030;SDS011;62035;52.094;5.112;2022-07-18T03:39:03;6.68;;;3.10;;
62030;SDS011;62035;52.094;5.112;2022-07-18T03:41:32;6.55;;;2.92;;
62030;SDS011;62035;52.094;5.112;2022-07-18T03:44:00;7.65;;;2.72;;
62030;SDS011;62035;52.094;5.112;2022-07-18T03:46:27;6.72;;;2.60;;
62030;SDS011;62035;52.094;5.112;2022-07-18T03:48:55;8.13;;;3.15;;
62030;SDS011;62035;52.094;5.112;2022-07-18T03:51:23;7.13;;;2.75;;
62030;SDS011;62035;52.094;5.112;2022-07-18T03:53:51;5.60;;;2.60;;
62030;SDS011;62035;52.094;5.112;2022-07-18T03:56:20;4.00;;;2.50;;
62030;SDS011;62035;52.094;5.112;2022-07-18T03:58:48;4.90;;;2.28;;
62030;SDS011;62035;52.094;5.112;2022-07-18T04:01:16;8.32;;;2.67;;
62030;SDS011;62035;52.094;5.112;2022-07-18T04:03:44;5.88;;;2.30;;
62030;SDS011;62035;52.094;5.112;2022-07-18T04:06:11;5.45;;;2.50;;
62030;SDS011;62035;52.094;5.112;2022-07-18T04:08:39;4.85;;;2.58;;
62030;SDS011;62035;52.094;5.112;2022-07-18T04:11:06;5.75;;;2.60;;
62030;SDS011;62035;52.094;5.112;2022-07-18T04:13:35;7.53;;;2.63;;
62030;SDS011;62035;52.094;5.112;2022-07-18T04:16:03;7.85;;;2.47;;
62030;SDS011;62035;52.094;5.112;2022-07-18T04:18:31;7.38;;;2.33;;
62030;SDS011;62035;52.094;5.112;2022-07-18T04:20:59;7.75;;;2.70;;
62030;SDS011;62035;52.094;5.112;2022-07-18T04:23:26;11.85;;;2.85;;
62030;SDS011;62035;52.094;5.112;2022-07-18T04:25:54;10.10;;;3.42;;
62030;SDS011;62035;52.094;5.112;2022-07-18T04:28:21;7.47;;;3.17;;
62030;SDS011;62035;52.094;5.112;2022-07-18T04:30:50;9.32;;;3.10;;
62030;SDS011;62035;52.094;5.112;2022-07-18T04:33:18;14.02;;;3.30;;
62030;SDS011;62035;52.094;5.112;2022-07-18T04:35:46;8.60;;;2.90;;
62030;SDS011;62035;52.094;5.112;2022-07-18T04:38:14;6.68;;;3.33;;
62030;SDS011;62035;52.094;5.112;2022-07-18T04:40:42;7.78;;;3.38;;
62030;SDS011;62035;52.094;5.112;2022-07-18T04:43:10;9.30;;;2.90;;
62030;SDS011;62035;52.094;5.112;2022-07-18T04:45:37;5.82;;;3.10;;
62030;SDS011;62035;52.094;5.112;2022-07-18T04:48:06;7.80;;;3.30;;
62030;SDS011;62035;52.094;5.112;2022-07-18T04:50:34;8.48;;;3.30;;
62030;SDS011;62035;52.094;5.112;2022-07-18T04:53:02;7.93;;;3.63;;
62030;SDS011;62035;52.094;5.112;2022-07-18T04:55:29;8.20;;;2.72;;
62030;SDS011;62035;52.094;5.112;2022-07-18T04:57:57;7.03;;;2.92;;
62030;SDS011;62035;52.094;5.112;2022-07-18T05:00:25;6.47;;;3.67;;
62030;SDS011;62035;52.094;5.112;2022-07-18T05:02:55;10.63;;;3.50;;
62030;SDS011;62035;52.094;5.112;2022-07-18T05:05:25;8.07;;;2.97;;
62030;SDS011;62035;52.094;5.112;2022-07-18T05:10:22;7.88;;;3.33;;
62030;SDS011;62035;52.094;5.112;2022-07-18T05:12:51;6.82;;;3.20;;
62030;SDS011;62035;52.094;5.112;2022-07-18T05:15:21;9.40;;;3.33;;
62030;SDS011;62035;52.094;5.112;2022-07-18T05:17:50;8.05;;;3.60;;
62030;SDS011;62035;52.094;5.112;2022-07-18T05:20:19;7.95;;;3.35;;
62030;SDS011;62035;52.094;5.112;2022-07-18T05:22:51;12.93;;;4.00;;
62030;SDS011;62035;52.094;5.112;2022-07-18T05:25:19;10.68;;;4.00;;
62030;SDS011;62035;52.094;5.112;2022-07-18T05:27:49;7.15;;;3.28;;
62030;SDS011;62035;52.094;5.112;2022-07-18T05:30:17;12.13;;;3.50;;
62030;SDS011;62035;52.094;5.112;2022-07-18T05:32:45;8.80;;;3.50;;
62030;SDS011;62035;52.094;5.112;2022-07-18T05:35:13;7.28;;;3.75;;
62030;SDS011;62035;52.094;5.112;2022-07-18T05:37:41;7.78;;;3.65;;
62030;SDS011;62035;52.094;5.112;2022-07-18T05:40:12;9.73;;;4.00;;
62030;SDS011;62035;52.094;5.112;2022-07-18T05:42:41;8.23;;;3.90;;
62030;SDS011;62035;52.094;5.112;2022-07-18T05:45:10;9.20;;;3.58;;
62030;SDS011;62035;52.094;5.112;2022-07-18T05:47:38;8.13;;;3.92;;
62030;SDS011;62035;52.094;5.112;2022-07-18T05:50:06;11.73;;;3.58;;
62030;SDS011;62035;52.094;5.112;2022-07-18T05:52:36;10.05;;;3.90;;
62030;SDS011;62035;52.094;5.112;2022-07-18T05:55:04;9.40;;;3.65;;
62030;SDS011;62035;52.094;5.112;2022-07-18T05:57:35;6.55;;;3.72;;
62030;SDS011;62035;52.094;5.112;2022-07-18T06:00:03;9.07;;;4.05;;
62030;SDS011;62035;52.094;5.112;2022-07-18T06:02:33;9.88;;;3.97;;
62030;SDS011;62035;52.094;5.112;2022-07-18T06:05:01;7.25;;;3.65;;
62030;SDS011;62035;52.094;5.112;2022-07-18T06:07:28;9.68;;;3.80;;
62030;SDS011;62035;52.094;5.112;2022-07-18T06:09:56;12.90;;;3.97;;
62030;SDS011;62035;52.094;5.112;2022-07-18T06:12:24;10.18;;;4.03;;
62030;SDS011;62035;52.094;5.112;2022-07-18T06:14:58;9.70;;;3.95;;
62030;SDS011;62035;52.094;5.112;2022-07-18T06:17:26;8.57;;;3.70;;
62030;SDS011;62035;52.094;5.112;2022-07-18T06:19:54;14.25;;;4.05;;
62030;SDS011;62035;52.094;5.112;2022-07-18T06:22:23;10.23;;;3.92;;
62030;SDS011;62035;52.094;5.112;2022-07-18T06:24:51;11.07;;;4.28;;
62030;SDS011;62035;52.094;5.112;2022-07-18T06:27:19;15.23;;;4.20;;
62030;SDS011;62035;52.094;5.112;2022-07-18T06:29:46;8.32;;;3.83;;
62030;SDS011;62035;52.094;5.112;2022-07-18T06:32:15;8.10;;;3.83;;
62030;SDS011;62035;52.094;5.112;2022-07-18T06:34:43;9.27;;;4.00;;
62030;SDS011;62035;52.094;5.112;2022-07-18T06:37:10;12.75;;;4.22;;
62030;SDS011;62035;52.094;5.112;2022-07-18T06:39:38;7.18;;;3.70;;
62030;SDS011;62035;52.094;5.112;2022-07-18T06:42:06;7.93;;;4.20;;
62030;SDS011;62035;52.094;5.112;2022-07-18T06:44:34;14.00;;;4.05;;
62030;SDS011;62035;52.094;5.112;2022-07-18T06:47:01;11.40;;;4.32;;
62030;SDS011;62035;52.094;5.112;2022-07-18T06:49:30;7.45;;;3.88;;
62030;SDS011;62035;52.094;5.112;2022-07-18T06:51:58;10.70;;;3.50;;
62030;SDS011;62035;52.094;5.112;2022-07-18T06:54:25;10.90;;;4.00;;
62030;SDS011;62035;52.094;5.112;2022-07-18T06:56:53;15.77;;;3.88;;
62030;SDS011;62035;52.094;5.112;2022-07-18T06:59:21;9.50;;;4.28;;
62030;SDS011;62035;52.094;5.112;2022-07-18T07:01:49;12.60;;;4.20;;
62030;SDS011;62035;52.094;5.112;2022-07-18T07:04:17;6.28;;;3.67;;
62030;SDS011;62035;52.094;5.112;2022-07-18T07:06:46;8.90;;;3.63;;
62030;SDS011;62035;52.094;5.112;2022-07-18T07:09:13;10.43;;;3.88;;
62030;SDS011;62035;52.094;5.112;2022-07-18T07:11:41;12.23;;;4.00;;
62030;SDS011;62035;52.094;5.112;2022-07-18T07:14:08;10.23;;;3.83;;
62030;SDS011;62035;52.094;5.112;2022-07-18T07:16:36;11.98;;;4.00;;
62030;SDS011;62035;52.094;5.112;2022-07-18T07:19:03;6.60;;;3.50;;
62030;SDS011;62035;52.094;5.112;2022-07-18T07:21:31;6.85;;;3.40;;
62030;SDS011;62035;52.094;5.112;2022-07-18T07:24:00;13.02;;;3.67;;
62030;SDS011;62035;52.094;5.112;2022-07-18T07:26:27;12.88;;;3.50;;
62030;SDS011;62035;52.094;5.112;2022-07-18T07:28:55;9.38;;;2.88;;
62030;SDS011;62035;52.094;5.112;2022-07-18T07:31:22;7.53;;;2.80;;
62030;SDS011;62035;52.094;5.112;2022-07-18T07:33:50;9.88;;;3.00;;
62030;SDS011;62035;52.094;5.112;2022-07-18T07:36:17;7.43;;;2.60;;
62030;SDS011;62035;52.094;5.112;2022-07-18T07:38:46;5.90;;;2.63;;
62030;SDS011;62035;52.094;5.112;2022-07-18T07:41:15;8.25;;;3.10;;
62030;SDS011;62035;52.094;5.112;2022-07-18T07:43:43;10.13;;;3.85;;
62030;SDS011;62035;52.094;5.112;2022-07-18T07:46:10;12.30;;;3.63;;
62030;SDS011;62035;52.094;5.112;2022-07-18T07:48:38;6.55;;;2.65;;
62030;SDS011;62035;52.094;5.112;2022-07-18T07:51:06;6.03;;;2.35;;
62030;SDS011;62035;52.094;5.112;2022-07-18T07:53:33;6.32;;;2.65;;
62030;SDS011;62035;52.094;5.112;2022-07-18T07:56:01;9.15;;;2.78;;
62030;SDS011;62035;52.094;5.112;2022-07-18T07:58:30;9.60;;;3.17;;
62030;SDS011;62035;52.094;5.112;2022-07-18T08:00:57;7.22;;;2.50;;
62030;SDS011;62035;52.094;5.112;2022-07-18T08:03:25;5.55;;;2.50;;
62030;SDS011;62035;52.094;5.112;2022-07-18T08:05:52;8.13;;;2.80;;
62030;SDS011;62035;52.094;5.112;2022-07-18T08:08:20;9.95;;;2.08;;
62030;SDS011;62035;52.094;5.112;2022-07-18T08:10:47;6.38;;;2.42;;
62030;SDS011;62035;52.094;5.112;2022-07-18T08:13:15;6.22;;;2.40;;
62030;SDS011;62035;52.094;5.112;2022-07-18T08:15:44;9.88;;;2.40;;
62030;SDS011;62035;52.094;5.112;2022-07-18T08:18:11;8.05;;;2.88;;
62030;SDS011;62035;52.094;5.112;2022-07-18T08:20:39;10.63;;;3.25;;
62030;SDS011;62035;52.094;5.112;2022-07-18T08:23:07;8.95;;;2.45;;
62030;SDS011;62035;52.094;5.112;2022-07-18T08:25:37;10.15;;;3.03;;
62030;SDS011;62035;52.094;5.112;2022-07-18T08:28:07;6.55;;;2.97;;
62030;SDS011;62035;52.094;5.112;2022-07-18T08:30:36;6.70;;;3.20;;
62030;SDS011;62035;52.094;5.112;2022-07-18T08:33:06;8.20;;;3.13;;
62030;SDS011;62035;52.094;5.112;2022-07-18T08:35:34;11.23;;;3.20;;
62030;SDS011;62035;52.094;5.112;2022-07-18T08:38:02;7.07;;;3.03;;
62030;SDS011;62035;52.094;5.112;2022-07-18T08:40:30;8.25;;;3.35;;
62030;SDS011;62035;52.094;5.112;2022-07-18T08:43:01;8.15;;;3.42;;
62030;SDS011;62035;52.094;5.112;2022-07-18T08:45:28;13.02;;;3.78;;
62030;SDS011;62035;52.094;5.112;2022-07-18T08:47:56;11.88;;;3.90;;
62030;SDS011;62035;52.094;5.112;2022-07-18T08:50:25;9.60;;;3.75;;
62030;SDS011;62035;52.094;5.112;2022-07-18T08:52:53;13.32;;;3.47;;
62030;SDS011;62035;52.094;5.112;2022-07-18T08:55:22;8.30;;;3.30;;
62030;SDS011;62035;52.094;5.112;2022-07-18T08:57:49;15.27;;;4.00;;
62030;SDS011;62035;52.094;5.112;2022-07-18T09:00:18;16.60;;;3.75;;
62030;SDS011;62035;52.094;5.112;2022-07-18T09:02:47;14.00;;;3.80;;
62030;SDS011;62035;52.094;5.112;2022-07-18T09:05:26;9.10;;;3.08;;
62030;SDS011;62035;52.094;5.112;2022-07-18T09:08:06;10.48;;;3.53;;
62030;SDS011;62035;52.094;5.112;2022-07-18T09:10:49;8.18;;;3.10;;
62030;SDS011;62035;52.094;5.112;2022-07-18T09:13:19;6.82;;;3.10;;
62030;SDS011;62035;52.094;5.112;2022-07-18T09:15:57;7.85;;;3.53;;
62030;SDS011;62035;52.094;5.112;2022-07-18T09:18:27;11.63;;;3.58;;
62030;SDS011;62035;52.094;5.112;2022-07-18T09:21:01;6.97;;;3.28;;
62030;SDS011;62035;52.094;5.112;2022-07-18T09:23:33;8.95;;;3.50;;
62030;SDS011;62035;52.094;5.112;2022-07-18T09:26:03;7.18;;;3.42;;
62030;SDS011;62035;52.094;5.112;2022-07-18T09:28:45;8.68;;;3.67;;
62030;SDS011;62035;52.094;5.112;2022-07-18T09:31:18;9.77;;;3.58;;
62030;SDS011;62035;52.094;5.112;2022-07-18T09:33:52;7.97;;;3.50;;
62030;SDS011;62035;52.094;5.112;2022-07-18T09:36:21;10.48;;;3.85;;
62030;SDS011;62035;52.094;5.112;2022-07-18T09:38:50;9.00;;;3.42;;
62030;SDS011;62035;52.094;5.112;2022-07-18T09:41:21;9.15;;;3.65;;
62030;SDS011;62035;52.094;5.112;2022-07-18T09:43:50;11.23;;;3.33;;
62030;SDS011;62035;52.094;5.112;2022-07-18T09:46:17;10.05;;;3.70;;
62030;SDS011;62035;52.094;5.112;2022-07-18T09:48:45;8.55;;;3.72;;
62030;SDS011;62035;52.094;5.112;2022-07-18T09:51:14;5.70;;;3.00;;
62030;SDS011;62035;52.094;5.112;2022-07-18T09:53:44;5.40;;;3.25;;
62030;SDS011;62035;52.094;5.112;2022-07-18T09:56:13;7.70;;;3.83;;
62030;SDS011;62035;52.094;5.112;2022-07-18T09:58:50;6.72;;;3.38;;
62030;SDS011;62035;52.094;5.112;2022-07-18T10:01:19;9.35;;;3.63;;
62030;SDS011;62035;52.094;5.112;2022-07-18T10:03:48;10.02;;;3.60;;
62030;SDS011;62035;52.094;5.112;2022-07-18T10:06:16;9.70;;;4.28;;
62030;SDS011;62035;52.094;5.112;2022-07-18T10:08:46;9.05;;;4.18;;
62030;SDS011;62035;52.094;5.112;2022-07-18T10:11:14;8.32;;;4.07;;
62030;SDS011;62035;52.094;5.112;2022-07-18T10:13:42;12.10;;;3.97;;
62030;SDS011;62035;52.094;5.112;2022-07-18T10:16:11;12.02;;;3.70;;
62030;SDS011;62035;52.094;5.112;2022-07-18T10:18:39;12.27;;;3.38;;
62030;SDS011;62035;52.094;5.112;2022-07-18T10:21:07;8.02;;;3.03;;
62030;SDS011;62035;52.094;5.112;2022-07-18T10:23:38;7.07;;;3.38;;
62030;SDS011;62035;52.094;5.112;2022-07-18T10:26:14;9.43;;;4.03;;
62030;SDS011;62035;52.094;5.112;2022-07-18T10:32:00;8.73;;;3.03;;
62030;SDS011;62035;52.094;5.112;2022-07-18T10:34:33;10.65;;;3.45;;
62030;SDS011;62035;52.094;5.112;2022-07-18T10:37:08;7.85;;;2.83;;
62030;SDS011;62035;52.094;5.112;2022-07-18T10:39:38;7.15;;;2.53;;
62030;SDS011;62035;52.094;5.112;2022-07-18T10:42:19;7.10;;;2.88;;
62030;SDS011;62035;52.094;5.112;2022-07-18T10:44:50;10.48;;;3.35;;
62030;SDS011;62035;52.094;5.112;2022-07-18T10:47:19;6.30;;;2.63;;
62030;SDS011;62035;52.094;5.112;2022-07-18T10:50:07;7.20;;;2.38;;
62030;SDS011;62035;52.094;5.112;2022-07-18T10:52:55;6.30;;;2.60;;
62030;SDS011;62035;52.094;5.112;2022-07-18T10:55:30;5.90;;;2.88;;
62030;SDS011;62035;52.094;5.112;2022-07-18T10:58:21;4.30;;;2.30;;
62030;SDS011;62035;52.094;5.112;2022-07-18T11:00:50;5.70;;;2.72;;
62030;SDS011;62035;52.094;5.112;2022-07-18T11:03:27;7.72;;;3.05;;
62030;SDS011;62035;52.094;5.112;2022-07-18T11:05:55;7.05;;;3.15;;
62030;SDS011;62035;52.094;5.112;2022-07-18T11:08:24;5.80;;;2.80;;
62030;SDS011;62035;52.094;5.112;2022-07-18T11:11:10;4.60;;;2.43;;
62030;SDS011;62035;52.094;5.112;2022-07-18T11:13:43;6.28;;;2.67;;
62030;SDS011;62035;52.094;5.112;2022-07-18T11:16:16;6.70;;;2.78;;
62030;SDS011;62035;52.094;5.112;2022-07-18T11:21:46;8.75;;;2.42;;
62030;SDS011;62035;52.094;5.112;2022-07-18T11:24:23;5.70;;;2.95;;
62030;SDS011;62035;52.094;5.112;2022-07-18T11:26:53;7.30;;;3.47;;
62030;SDS011;62035;52.094;5.112;2022-07-18T11:29:22;6.22;;;2.75;;
62030;SDS011;62035;52.094;5.112;2022-07-18T11:31:51;9.30;;;2.97;;
62030;SDS011;62035;52.094;5.112;2022-07-18T11:34:23;8.10;;;3.42;;
62030;SDS011;62035;52.094;5.112;2022-07-18T11:36:52;6.03;;;2.80;;
62030;SDS011;62035;52.094;5.112;2022-07-18T11:39:29;11.00;;;3.35;;
62030;SDS011;62035;52.094;5.112;2022-07-18T11:42:00;6.90;;;2.85;;
62030;SDS011;62035;52.094;5.112;2022-07-18T11:44:29;6.28;;;2.80;;
62030;SDS011;62035;52.094;5.112;2022-07-18T11:47:00;11.13;;;3.10;;
62030;SDS011;62035;52.094;5.112;2022-07-18T11:49:30;10.18;;;2.92;;
62030;SDS011;62035;52.094;5.112;2022-07-18T11:51:57;7.55;;;2.80;;
62030;SDS011;62035;52.094;5.112;2022-07-18T11:54:25;10.23;;;2.33;;
62030;SDS011;62035;52.094;5.112;2022-07-18T11:56:55;10.25;;;2.78;;
62030;SDS011;62035;52.094;5.112;2022-07-18T12:02:04;5.22;;;2.60;;
62030;SDS011;62035;52.094;5.112;2022-07-18T12:04:32;5.90;;;2.33;;
62030;SDS011;62035;52.094;5.112;2022-07-18T12:07:12;4.63;;;1.92;;
62030;SDS011;62035;52.094;5.112;2022-07-18T12:09:45;5.45;;;2.70;;
62030;SDS011;62035;52.094;5.112;2022-07-18T12:12:15;7.53;;;2.40;;
62030;SDS011;62035;52.094;5.112;2022-07-18T12:14:53;6.45;;;2.10;;
62030;SDS011;62035;52.094;5.112;2022-07-18T12:17:23;4.60;;;2.17;;
62030;SDS011;62035;52.094;5.112;2022-07-18T12:19:50;4.00;;;2.13;;
62030;SDS011;62035;52.094;5.112;2022-07-18T12:22:18;4.47;;;2.22;;
62030;SDS011;62035;52.094;5.112;2022-07-18T12:24:50;6.28;;;2.25;;
62030;SDS011;62035;52.094;5.112;2022-07-18T12:27:20;5.50;;;2.30;;
62030;SDS011;62035;52.094;5.112;2022-07-18T12:29:54;5.73;;;2.10;;
62030;SDS011;62035;52.094;5.112;2022-07-18T12:32:37;5.32;;;2.28;;
62030;SDS011;62035;52.094;5.112;2022-07-18T12:35:18;5.70;;;2.30;;
62030;SDS011;62035;52.094;5.112;2022-07-18T12:37:52;5.25;;;2.20;;
62030;SDS011;62035;52.094;5.112;2022-07-18T12:40:26;6.68;;;2.40;;
62030;SDS011;62035;52.094;5.112;2022-07-18T12:43:08;6.35;;;2.88;;
62030;SDS011;62035;52.094;5.112;2022-07-18T12:45:38;7.65;;;2.13;;
62030;SDS011;62035;52.094;5.112;2022-07-18T12:48:09;5.78;;;2.13;;
62030;SDS011;62035;52.094;5.112;2022-07-18T12:50:38;5.65;;;2.15;;
62030;SDS011;62035;52.094;5.112;2022-07-18T12:53:07;5.50;;;2.42;;
62030;SDS011;62035;52.094;5.112;2022-07-18T12:55:35;4.93;;;2.42;;
62030;SDS011;62035;52.094;5.112;2022-07-18T12:58:03;6.13;;;2.22;;
62030;SDS011;62035;52.094;5.112;2022-07-18T13:00:32;7.28;;;2.42;;
62030;SDS011;62035;52.094;5.112;2022-07-18T13:03:01;4.65;;;2.15;;
62030;SDS011;62035;52.094;5.112;2022-07-18T13:05:29;4.55;;;2.00;;
62030;SDS011;62035;52.094;5.112;2022-07-18T13:07:57;6.18;;;2.30;;
62030;SDS011;62035;52.094;5.112;2022-07-18T13:10:25;6.28;;;1.90;;
62030;SDS011;62035;52.094;5.112;2022-07-18T13:12:53;6.38;;;1.80;;
62030;SDS011;62035;52.094;5.112;2022-07-18T13:15:21;4.10;;;2.00;;
62030;SDS011;62035;52.094;5.112;2022-07-18T13:17:49;4.10;;;2.05;;
62030;SDS011;62035;52.094;5.112;2022-07-18T13:20:18;4.68;;;2.20;;
62030;SDS011;62035;52.094;5.112;2022-07-18T13:22:46;3.92;;;2.13;;
62030;SDS011;62035;52.094;5.112;2022-07-18T13:25:14;8.55;;;1.95;;
62030;SDS011;62035;52.094;5.112;2022-07-18T13:27:42;8.25;;;2.00;;
62030;SDS011;62035;52.094;5.112;2022-07-18T13:30:10;7.22;;;2.10;;
62030;SDS011;62035;52.094;5.112;2022-07-18T13:32:38;5.70;;;1.90;;
62030;SDS011;62035;52.094;5.112;2022-07-18T13:35:07;7.90;;;2.47;;
62030;SDS011;62035;52.094;5.112;2022-07-18T13:37:37;4.72;;;1.95;;
62030;SDS011;62035;52.094;5.112;2022-07-18T13:40:05;3.63;;;2.10;;
62030;SDS011;62035;52.094;5.112;2022-07-18T13:42:35;2.90;;;1.90;;
62030;SDS011;62035;52.094;5.112;2022-07-18T13:45:04;7.35;;;2.35;;
62030;SDS011;62035;52.094;5.112;2022-07-18T13:47:33;9.55;;;2.28;;
62030;SDS011;62035;52.094;5.112;2022-07-18T13:50:01;11.70;;;2.20;;
62030;SDS011;62035;52.094;5.112;2022-07-18T13:52:29;4.38;;;2.05;;
62030;SDS011;62035;52.094;5.112;2022-07-18T13:54:58;4.75;;;2.15;;
62030;SDS011;62035;52.094;5.112;2022-07-18T13:57:26;4.10;;;2.10;;
62030;SDS011;62035;52.094;5.112;2022-07-18T13:59:54;3.40;;;1.85;;
62030;SDS011;62035;52.094;5.112;2022-07-18T14:02:22;5.00;;;2.40;;
62030;SDS011;62035;52.094;5.112;2022-07-18T14:04:49;4.65;;;2.00;;
62030;SDS011;62035;52.094;5.112;2022-07-18T14:07:17;3.75;;;1.75;;
62030;SDS011;62035;52.094;5.112;2022-07-18T14:09:44;4.18;;;2.10;;
62030;SDS011;62035;52.094;5.112;2022-07-18T14:12:13;3.38;;;1.95;;
62030;SDS011;62035;52.094;5.112;2022-07-18T14:14:41;3.35;;;1.90;;
62030;SDS011;62035;52.094;5.112;2022-07-18T14:17:08;3.25;;;1.83;;
62030;SDS011;62035;52.094;5.112;2022-07-18T14:19:36;4.20;;;2.13;;
62030;SDS011;62035;52.094;5.112;2022-07-18T14:22:04;4.50;;;1.95;;
62030;SDS011;62035;52.094;5.112;2022-07-18T14:24:31;2.88;;;2.10;;
62030;SDS011;62035;52.094;5.112;2022-07-18T14:26:59;2.83;;;1.98;;
62030;SDS011;62035;52.094;5.112;2022-07-18T14:29:28;3.45;;;2.17;;
62030;SDS011;62035;52.094;5.112;2022-07-18T14:31:55;6.57;;;2.10;;
62030;SDS011;62035;52.094;5.112;2022-07-18T14:34:23;5.53;;;2.40;;
62030;SDS011;62035;52.094;5.112;2022-07-18T14:36:50;5.63;;;1.85;;
62030;SDS011;62035;52.094;5.112;2022-07-18T14:39:18;6.00;;;2.03;;
62030;SDS011;62035;52.094;5.112;2022-07-18T14:41:45;5.38;;;2.17;;
62030;SDS011;62035;52.094;5.112;2022-07-18T14:44:13;8.10;;;2.10;;
62030;SDS011;62035;52.094;5.112;2022-07-18T14:46:42;5.55;;;2.20;;
62030;SDS011;62035;52.094;5.112;2022-07-18T14:49:09;5.82;;;2.00;;
62030;SDS011;62035;52.094;5.112;2022-07-18T14:51:37;4.40;;;1.80;;
62030;SDS011;62035;52.094;5.112;2022-07-18T14:54:04;2.83;;;1.70;;
62030;SDS011;62035;52.094;5.112;2022-07-18T14:56:32;3.67;;;2.00;;
62030;SDS011;62035;52.094;5.112;2022-07-18T14:59:00;2.85;;;1.60;;
62030;SDS011;62035;52.094;5.112;2022-07-18T15:01:27;3.30;;;1.95;;
62030;SDS011;62035;52.094;5.112;2022-07-18T15:03:58;10.43;;;2.30;;
62030;SDS011;62035;52.094;5.112;2022-07-18T15:06:27;6.13;;;2.00;;
62030;SDS011;62035;52.094;5.112;2022-07-18T15:08:54;4.13;;;1.77;;